Time;durP1;ratioP1;P1;durP2;ratioP2;P2;SDS_P1;SDS_P2;PMS_P1;PMS_P2;Temp;Humidity;BMP_temperature;BMP_pressure;BME280_temperature;BME280_humidity;BME280_pressure;Samples;Min_cycle;Max_cycle;Signal;HPM_P1;HPM_P2
2023/01/10 00:00:10;;;;;;;12.70;3.58;;;4.80;99.90;;;;;;5121518;27;20035;-81
2023/01/10 00:02:36;;;;;;;14.85;5.75;;;4.80;99.90;;;;;;5124011;27;20105;-80
2023/01/10 00:05:02;;;;;;;15.27;10.48;;;4.70;99.90;;;;;;5102584;27;20039;-81
2023/01/10 00:07:27;;;;;;;17.48;13.15;;;4.70;99.90;;;;;;5109578;27;20039;-81
2023/01/10 00:09:53;;;;;;;20.52;12.05;;;4.70;99.90;;;;;;5125839;27;20043;-80
2023/01/10 00:15:05;;;;;;;15.70;2.95;;;4.60;99.90;;;;;;5081216;27;20046;-81
2023/01/10 00:17:30;;;;;;;14.65;2.90;;;4.60;99.90;;;;;;5125843;27;20042;-81
2023/01/10 00:19:56;;;;;;;14.48;3.20;;;4.60;99.90;;;;;;5122822;27;20039;-82
2023/01/10 00:22:23;;;;;;;18.38;4.53;;;4.50;99.90;;;;;;5111272;27;20397;-81
2023/01/10 00:24:50;;;;;;;13.02;3.53;;;4.50;99.90;;;;;;5119347;27;20047;-80
2023/01/10 00:27:21;;;;;;;16.63;3.47;;;4.50;99.90;;;;;;5121550;27;20393;-81
2023/01/10 00:29:50;;;;;;;13.77;4.28;;;4.50;99.90;;;;;;5119821;27;20051;-81
2023/01/10 00:32:16;;;;;;;13.80;3.10;;;4.50;99.90;;;;;;5113388;27;20040;-81
2023/01/10 00:34:41;;;;;;;16.10;3.35;;;4.50;99.90;;;;;;5104694;27;20042;-81
2023/01/10 00:37:07;;;;;;;13.13;2.72;;;4.80;99.90;;;;;;5114277;27;20039;-81
2023/01/10 00:39:32;;;;;;;14.50;5.38;;;4.70;99.90;;;;;;5121695;27;20070;-81
2023/01/10 00:44:45;;;;;;;14.63;4.93;;;4.60;99.90;;;;;;5120789;27;20047;-81
2023/01/10 00:47:12;;;;;;;15.10;3.17;;;4.60;99.90;;;;;;5112254;28;20057;-81
2023/01/10 00:49:38;;;;;;;21.63;3.85;;;4.40;99.90;;;;;;5107813;27;20039;-81
2023/01/10 00:52:04;;;;;;;20.15;3.50;;;4.70;99.90;;;;;;5127443;27;20030;-81
2023/01/10 00:54:29;;;;;;;20.05;5.00;;;4.70;99.90;;;;;;5119977;27;20560;-81
2023/01/10 00:56:55;;;;;;;12.68;3.28;;;4.80;99.90;;;;;;5119581;27;20046;-81
2023/01/10 00:59:22;;;;;;;13.95;5.78;;;4.70;99.90;;;;;;5112473;27;20095;-81
2023/01/10 01:01:48;;;;;;;17.42;5.03;;;4.80;99.90;;;;;;5109256;28;20041;-81
2023/01/10 01:04:14;;;;;;;15.07;4.30;;;4.80;99.90;;;;;;5134705;27;20031;-81
2023/01/10 01:06:41;;;;;;;13.85;6.13;;;4.80;99.90;;;;;;5115421;27;20535;-81
2023/01/10 01:09:07;;;;;;;21.13;3.58;;;4.80;99.90;;;;;;5083493;27;20084;-81
2023/01/10 01:11:33;;;;;;;18.30;4.50;;;4.90;99.90;;;;;;5136288;27;20071;-82
2023/01/10 01:13:58;;;;;;;28.83;3.65;;;4.90;99.90;;;;;;5133496;27;21526;-82
2023/01/10 01:16:24;;;;;;;21.08;4.40;;;4.90;99.90;;;;;;5106898;27;20105;-82
2023/01/10 01:18:50;;;;;;;14.38;3.75;;;5.00;99.90;;;;;;5115832;27;20050;-81
2023/01/10 01:21:15;;;;;;;26.60;4.43;;;5.00;99.90;;;;;;5100407;28;20126;-81
2023/01/10 01:23:41;;;;;;;17.90;3.75;;;5.30;99.90;;;;;;5121217;27;20126;-81
2023/01/10 01:26:07;;;;;;;15.98;3.03;;;5.10;99.90;;;;;;5116590;27;20037;-81
2023/01/10 01:28:32;;;;;;;14.55;3.65;;;5.10;99.90;;;;;;5132609;27;20653;-80
2023/01/10 01:30:58;;;;;;;21.92;5.43;;;5.10;99.90;;;;;;5117486;27;20058;-81
2023/01/10 01:33:24;;;;;;;19.15;3.00;;;5.20;99.90;;;;;;5113672;27;20085;-81
2023/01/10 01:35:50;;;;;;;15.68;3.03;;;5.20;99.90;;;;;;5122610;27;20068;-81
2023/01/10 01:38:16;;;;;;;17.52;2.65;;;5.30;99.90;;;;;;5136045;27;20064;-81
2023/01/10 01:40:43;;;;;;;16.35;2.75;;;5.30;99.90;;;;;;5145782;27;20043;-81
2023/01/10 01:43:27;;;;;;;21.90;3.20;;;5.40;99.90;;;;;;5123027;27;20098;-81
2023/01/10 01:45:54;;;;;;;16.05;4.20;;;5.40;99.90;;;;;;5118896;27;20485;-81
2023/01/10 01:48:34;;;;;;;17.05;2.90;;;5.40;99.90;;;;;;5128273;27;20880;-81
2023/01/10 01:51:06;;;;;;;17.65;3.88;;;5.40;99.90;;;;;;5114913;27;20046;-81
2023/01/10 01:53:48;;;;;;;19.70;2.88;;;5.40;99.90;;;;;;5136615;27;20034;-80
2023/01/10 01:56:23;;;;;;;12.45;2.85;;;5.30;99.90;;;;;;5121109;27;20035;-81
2023/01/10 01:59:21;;;;;;;17.77;5.68;;;5.20;99.90;;;;;;5135602;27;20039;-81
2023/01/10 02:01:51;;;;;;;24.42;3.92;;;5.20;99.90;;;;;;5123119;27;20125;-81
2023/01/10 02:04:28;;;;;;;23.75;4.22;;;5.90;99.90;;;;;;5132712;27;20046;-80
2023/01/10 02:06:55;;;;;;;16.77;3.00;;;5.10;99.90;;;;;;5125041;27;20058;-81
2023/01/10 02:09:29;;;;;;;24.05;3.40;;;5.10;99.90;;;;;;5143396;27;20105;-81
2023/01/10 02:11:55;;;;;;;13.55;2.92;;;5.10;99.90;;;;;;5137692;27;20065;-82
2023/01/10 02:14:23;;;;;;;18.58;6.80;;;5.10;99.90;;;;;;5127216;27;20473;-80
2023/01/10 02:16:49;;;;;;;20.02;2.95;;;5.00;99.90;;;;;;5138794;27;20405;-81
2023/01/10 02:19:42;;;;;;;17.15;2.83;;;4.90;99.90;;;;;;5118086;27;20031;-81
2023/01/10 02:22:40;;;;;;;18.48;3.67;;;4.90;99.90;;;;;;5137481;27;20485;-81
2023/01/10 02:25:30;;;;;;;14.80;4.28;;;4.80;99.90;;;;;;5138069;27;21001;-81
2023/01/10 02:28:18;;;;;;;15.63;3.70;;;4.80;99.90;;;;;;5130114;27;20108;-81
2023/01/10 02:30:55;;;;;;;19.67;2.85;;;4.80;99.90;;;;;;5122928;27;20490;-81
2023/01/10 02:33:55;;;;;;;22.70;3.53;;;4.80;99.90;;;;;;5121296;27;20031;-81
2023/01/10 02:36:46;;;;;;;12.57;3.25;;;4.70;99.90;;;;;;5123223;27;20042;-81
2023/01/10 02:39:20;;;;;;;14.35;2.92;;;4.70;99.90;;;;;;5117761;27;20188;-81
2023/01/10 02:42:01;;;;;;;18.02;4.78;;;4.70;99.90;;;;;;5100535;27;20039;-81
2023/01/10 02:44:59;;;;;;;17.48;3.90;;;4.70;99.90;;;;;;5138189;27;20139;-81
2023/01/10 02:47:24;;;;;;;20.58;3.95;;;4.70;99.90;;;;;;5127896;27;20054;-81
2023/01/10 02:49:51;;;;;;;14.90;2.88;;;4.70;99.90;;;;;;5116630;27;20039;-81
2023/01/10 02:52:22;;;;;;;17.13;2.80;;;4.70;99.90;;;;;;5120829;27;20031;-81
2023/01/10 02:54:52;;;;;;;13.18;2.13;;;5.00;99.90;;;;;;5092523;27;20132;-81
2023/01/10 02:57:23;;;;;;;18.42;3.17;;;4.80;99.90;;;;;;5121891;27;20091;-81
2023/01/10 03:00:14;;;;;;;13.07;2.92;;;4.80;99.90;;;;;;5139661;27;20039;-81
2023/01/10 03:02:44;;;;;;;19.63;3.65;;;4.90;99.90;;;;;;5131540;27;20047;-81
2023/01/10 03:05:12;;;;;;;24.38;3.60;;;4.80;99.90;;;;;;5124864;27;20085;-81
2023/01/10 03:07:43;;;;;;;18.15;3.50;;;4.90;99.90;;;;;;5121420;27;20074;-81
2023/01/10 03:10:08;;;;;;;24.88;3.15;;;4.90;99.90;;;;;;5121892;27;20534;-81
2023/01/10 03:13:02;;;;;;;15.57;3.78;;;4.90;99.90;;;;;;5126259;27;20043;-81
2023/01/10 03:15:33;;;;;;;20.65;3.63;;;5.00;99.90;;;;;;5129399;27;20035;-81
2023/01/10 03:18:02;;;;;;;13.52;3.30;;;5.00;99.90;;;;;;5130886;27;20503;-81
2023/01/10 03:20:32;;;;;;;18.45;2.63;;;5.00;99.90;;;;;;5112158;27;20043;-81
2023/01/10 03:23:00;;;;;;;18.90;3.08;;;5.00;99.90;;;;;;5119782;27;20043;-81
2023/01/10 03:25:32;;;;;;;13.25;2.58;;;5.00;99.90;;;;;;5126897;27;20083;-80
2023/01/10 03:28:20;;;;;;;13.90;3.28;;;5.00;99.90;;;;;;5117104;27;20027;-81
2023/01/10 03:31:00;;;;;;;17.83;2.50;;;5.00;99.90;;;;;;5119561;27;20039;-81
2023/01/10 03:33:28;;;;;;;15.90;3.00;;;5.00;99.90;;;;;;5125166;27;20043;-81
2023/01/10 03:36:15;;;;;;;16.75;3.08;;;5.00;99.90;;;;;;5130049;27;20031;-81
2023/01/10 03:38:43;;;;;;;18.48;2.45;;;5.00;99.90;;;;;;5135100;27;20042;-81
2023/01/10 03:41:22;;;;;;;16.77;4.38;;;5.00;99.90;;;;;;5131727;27;20084;-80
2023/01/10 03:46:58;;;;;;;21.20;3.30;;;5.00;99.90;;;;;;5132327;27;20439;-81
2023/01/10 03:49:26;;;;;;;16.65;2.85;;;5.10;99.90;;;;;;5101276;28;20172;-81
2023/01/10 03:51:53;;;;;;;11.05;2.20;;;5.10;99.90;;;;;;5116512;27;20063;-81
2023/01/10 03:54:19;;;;;;;21.23;3.10;;;5.10;99.90;;;;;;5136231;27;20035;-81
2023/01/10 03:56:48;;;;;;;13.27;2.47;;;5.10;99.90;;;;;;5135038;27;20050;-81
2023/01/10 03:59:24;;;;;;;12.65;3.50;;;5.10;99.90;;;;;;5146613;27;20106;-81
2023/01/10 04:01:51;;;;;;;14.10;2.90;;;5.20;99.90;;;;;;5112349;27;20049;-80
2023/01/10 04:04:16;;;;;;;14.05;2.30;;;5.30;99.90;;;;;;5133744;27;20059;-81
2023/01/10 04:06:42;;;;;;;16.75;2.58;;;5.20;99.90;;;;;;5137193;27;20202;-81
2023/01/10 04:09:08;;;;;;;16.67;2.90;;;5.30;99.90;;;;;;5135708;27;20026;-81
2023/01/10 04:11:34;;;;;;;19.45;3.53;;;5.20;99.90;;;;;;5119314;27;20468;-81
2023/01/10 04:13:59;;;;;;;17.13;2.85;;;5.20;99.90;;;;;;5099255;27;20050;-81
2023/01/10 04:16:25;;;;;;;20.02;3.35;;;5.20;99.90;;;;;;5133195;27;20039;-81
2023/01/10 04:18:51;;;;;;;25.48;3.45;;;5.20;99.90;;;;;;5110001;27;20446;-81
2023/01/10 04:21:16;;;;;;;17.30;3.60;;;5.20;99.90;;;;;;5116600;27;20038;-81
2023/01/10 04:23:42;;;;;;;13.55;3.35;;;5.20;99.90;;;;;;5114588;27;20039;-81
2023/01/10 04:26:08;;;;;;;21.35;3.13;;;5.50;99.90;;;;;;5132968;27;21844;-81
2023/01/10 04:28:33;;;;;;;19.48;3.47;;;5.10;99.90;;;;;;5112480;27;20050;-81
2023/01/10 04:30:59;;;;;;;17.80;3.17;;;5.10;99.90;;;;;;5115532;27;20789;-81
2023/01/10 04:33:25;;;;;;;17.95;2.85;;;5.40;99.90;;;;;;5123418;27;20042;-81
2023/01/10 04:35:51;;;;;;;18.58;3.72;;;5.00;99.90;;;;;;5115946;27;20042;-81
2023/01/10 04:38:17;;;;;;;24.83;4.45;;;4.90;99.90;;;;;;5135954;27;20108;-81
2023/01/10 04:40:43;;;;;;;18.05;4.05;;;4.90;99.90;;;;;;5140695;27;20039;-81
2023/01/10 04:43:10;;;;;;;16.77;3.10;;;4.90;99.90;;;;;;5125248;27;20039;-81
2023/01/10 04:45:36;;;;;;;20.10;3.80;;;5.00;99.90;;;;;;5121826;27;20120;-81
2023/01/10 04:48:02;;;;;;;16.10;3.30;;;5.10;99.90;;;;;;5119167;27;20497;-81
2023/01/10 04:50:28;;;;;;;12.40;3.25;;;5.00;99.90;;;;;;5102005;28;20106;-81
2023/01/10 04:52:53;;;;;;;20.00;3.72;;;5.00;99.90;;;;;;5121543;27;20126;-81
2023/01/10 04:55:19;;;;;;;13.65;3.80;;;5.00;99.90;;;;;;5137306;27;20128;-80
2023/01/10 04:57:45;;;;;;;20.48;3.70;;;5.10;99.90;;;;;;5138928;27;20039;-81
2023/01/10 05:00:12;;;;;;;18.35;2.80;;;5.00;99.90;;;;;;5101083;27;20022;-82
2023/01/10 05:02:42;;;;;;;16.25;3.38;;;5.10;99.90;;;;;;5111589;27;20036;-81
2023/01/10 05:05:09;;;;;;;16.95;3.42;;;5.10;99.90;;;;;;5118180;27;20135;-81
2023/01/10 05:07:35;;;;;;;17.77;3.33;;;5.10;99.90;;;;;;5118409;27;20141;-81
2023/01/10 05:10:01;;;;;;;20.73;3.60;;;5.20;99.90;;;;;;5138737;27;20035;-81
2023/01/10 05:12:26;;;;;;;15.88;3.75;;;5.20;99.90;;;;;;5141623;27;20030;-82
2023/01/10 05:14:52;;;;;;;17.40;3.60;;;5.20;99.90;;;;;;5125859;27;20119;-81
2023/01/10 05:17:18;;;;;;;19.35;4.30;;;5.30;99.90;;;;;;5125500;27;20061;-81
2023/01/10 05:19:43;;;;;;;24.02;3.88;;;5.30;99.90;;;;;;5140082;27;20038;-81
2023/01/10 05:22:09;;;;;;;14.27;3.92;;;5.30;99.90;;;;;;5140448;27;20039;-82
2023/01/10 05:24:35;;;;;;;14.75;3.53;;;5.40;99.90;;;;;;5124427;27;20512;-81
2023/01/10 05:27:00;;;;;;;17.27;4.68;;;5.40;99.90;;;;;;5122203;27;20043;-81
2023/01/10 05:29:26;;;;;;;20.42;4.03;;;5.40;99.90;;;;;;5121661;27;20077;-81
2023/01/10 05:31:52;;;;;;;18.83;4.82;;;5.60;99.90;;;;;;5117400;27;20050;-82
2023/01/10 05:34:18;;;;;;;24.75;5.18;;;5.30;99.90;;;;;;5139808;27;20046;-81
2023/01/10 05:36:44;;;;;;;16.45;4.22;;;5.30;99.90;;;;;;5117015;27;20043;-81
2023/01/10 05:39:09;;;;;;;15.35;5.53;;;5.40;99.90;;;;;;5134441;27;20047;-82
2023/01/10 05:41:35;;;;;;;20.60;5.20;;;5.40;99.90;;;;;;5118113;27;20031;-81
2023/01/10 05:44:01;;;;;;;19.13;4.75;;;5.40;99.90;;;;;;5141568;27;20039;-81
2023/01/10 05:46:26;;;;;;;21.98;4.97;;;5.40;99.90;;;;;;5121801;27;20035;-81
2023/01/10 05:48:52;;;;;;;28.00;5.38;;;5.40;99.90;;;;;;5122420;27;20039;-82
2023/01/10 05:51:17;;;;;;;19.15;5.22;;;5.50;99.90;;;;;;5142565;27;20074;-82
2023/01/10 05:53:43;;;;;;;24.17;5.63;;;5.50;99.90;;;;;;5115567;27;20150;-81
2023/01/10 05:56:09;;;;;;;22.15;5.07;;;5.50;99.90;;;;;;5140360;27;20039;-81
2023/01/10 05:58:35;;;;;;;23.48;5.07;;;5.50;99.90;;;;;;5134613;27;20096;-81
2023/01/10 06:01:00;;;;;;;20.00;5.30;;;5.50;99.90;;;;;;5116599;27;20039;-81
2023/01/10 06:03:26;;;;;;;21.88;4.40;;;5.50;99.90;;;;;;5134398;27;20455;-81
2023/01/10 06:05:56;;;;;;;17.38;4.28;;;5.60;99.90;;;;;;5148204;27;20039;-82
2023/01/10 06:08:22;;;;;;;15.55;4.05;;;5.60;99.90;;;;;;5142849;27;20043;-83
2023/01/10 06:10:48;;;;;;;19.45;4.10;;;5.60;99.90;;;;;;5127474;27;20513;-80
2023/01/10 06:13:14;;;;;;;16.92;3.75;;;5.70;99.90;;;;;;5134229;27;20035;-81
2023/01/10 06:15:39;;;;;;;23.17;3.67;;;5.70;99.90;;;;;;5111998;27;20142;-81
2023/01/10 06:18:06;;;;;;;24.17;4.97;;;5.70;99.90;;;;;;5138899;27;20481;-81
2023/01/10 06:20:32;;;;;;;20.90;3.78;;;5.70;99.90;;;;;;5123641;27;20050;-80
2023/01/10 06:22:59;;;;;;;14.48;3.80;;;5.70;99.90;;;;;;5137440;27;20039;-80
2023/01/10 06:25:26;;;;;;;22.02;4.45;;;5.70;99.90;;;;;;5114807;27;20043;-81
2023/01/10 06:27:51;;;;;;;16.92;2.85;;;5.70;99.90;;;;;;5139373;27;20043;-80
2023/01/10 06:30:17;;;;;;;16.85;3.45;;;5.70;99.90;;;;;;5144744;27;20038;-80
2023/01/10 06:32:43;;;;;;;19.60;3.88;;;5.70;99.90;;;;;;5138949;27;20110;-80
2023/01/10 06:35:09;;;;;;;18.45;4.15;;;5.70;99.90;;;;;;5137029;27;20657;-82
2023/01/10 06:37:34;;;;;;;18.77;3.17;;;5.70;99.90;;;;;;5143386;27;20661;-80
2023/01/10 06:40:00;;;;;;;19.98;3.75;;;5.70;99.90;;;;;;5132921;27;20039;-82
2023/01/10 06:42:25;;;;;;;12.20;3.03;;;5.70;99.90;;;;;;5133776;27;20039;-81
2023/01/10 06:44:51;;;;;;;14.27;2.95;;;5.80;99.90;;;;;;5135669;27;20058;-80
2023/01/10 06:47:17;;;;;;;15.32;3.22;;;6.50;99.90;;;;;;5142326;27;20477;-82
2023/01/10 06:49:42;;;;;;;12.55;2.50;;;5.80;99.90;;;;;;5136839;27;20035;-82
2023/01/10 06:52:08;;;;;;;15.55;3.17;;;5.80;99.90;;;;;;5132034;27;20031;-83
2023/01/10 06:54:33;;;;;;;14.30;2.58;;;5.80;99.90;;;;;;5136481;27;20485;-82
2023/01/10 06:56:59;;;;;;;15.55;2.90;;;5.70;99.90;;;;;;5138355;27;20061;-82
2023/01/10 06:59:24;;;;;;;16.40;3.13;;;5.70;99.90;;;;;;5116545;27;20030;-84
2023/01/10 07:01:50;;;;;;;12.75;3.65;;;5.60;99.90;;;;;;5119850;27;20176;-85
2023/01/10 07:04:16;;;;;;;15.70;3.35;;;5.60;99.90;;;;;;5121272;27;20046;-82
2023/01/10 07:06:41;;;;;;;16.33;3.33;;;5.50;99.90;;;;;;5133900;27;20031;-81
2023/01/10 07:09:08;;;;;;;12.82;2.70;;;5.50;99.90;;;;;;5132333;27;20172;-82
2023/01/10 07:11:34;;;;;;;15.13;3.00;;;5.40;99.90;;;;;;5134786;27;20031;-83
2023/01/10 07:14:01;;;;;;;15.40;3.03;;;5.30;99.90;;;;;;5132296;27;20039;-82
2023/01/10 07:16:27;;;;;;;13.68;3.60;;;5.30;99.90;;;;;;5110271;27;20031;-82
2023/01/10 07:18:52;;;;;;;15.18;4.35;;;5.30;99.90;;;;;;5133160;27;20031;-83
2023/01/10 07:21:18;;;;;;;16.13;3.58;;;5.30;99.90;;;;;;5137918;27;20059;-83
2023/01/10 07:23:49;;;;;;;12.98;3.55;;;5.40;99.90;;;;;;5137928;27;20024;-82
2023/01/10 07:26:16;;;;;;;18.80;4.25;;;5.40;99.90;;;;;;5133665;27;20038;-84
2023/01/10 07:28:43;;;;;;;19.55;4.07;;;5.50;99.90;;;;;;5116731;27;20038;-84
2023/01/10 07:31:10;;;;;;;26.55;4.82;;;5.50;99.90;;;;;;5119070;27;20039;-82
2023/01/10 07:33:35;;;;;;;19.15;4.55;;;5.50;99.90;;;;;;5130589;27;20128;-82
2023/01/10 07:36:02;;;;;;;20.92;4.53;;;5.60;99.90;;;;;;5136651;27;20043;-82
2023/01/10 07:38:28;;;;;;;23.65;5.05;;;5.60;99.90;;;;;;5117586;27;20089;-82
2023/01/10 07:40:53;;;;;;;29.65;6.13;;;5.60;99.90;;;;;;5138905;27;20115;-82
2023/01/10 07:43:19;;;;;;;23.95;7.50;;;5.70;99.90;;;;;;5141938;27;20055;-81
2023/01/10 07:45:45;;;;;;;28.92;6.10;;;5.70;99.90;;;;;;5120849;27;20084;-82
2023/01/10 07:48:10;;;;;;;26.10;5.72;;;5.70;99.90;;;;;;5119288;27;20542;-82
2023/01/10 07:50:37;;;;;;;19.30;5.70;;;5.70;99.90;;;;;;5119599;27;20074;-83
2023/01/10 07:53:05;;;;;;;30.92;6.15;;;5.70;99.90;;;;;;5137537;27;20046;-83
2023/01/10 07:55:33;;;;;;;25.80;5.50;;;5.70;99.90;;;;;;5119068;27;20091;-83
2023/01/10 07:57:59;;;;;;;26.50;6.35;;;5.70;99.90;;;;;;5121018;27;20575;-83
2023/01/10 08:00:25;;;;;;;28.20;7.07;;;5.70;99.90;;;;;;5130244;27;20038;-83
2023/01/10 08:02:54;;;;;;;25.13;4.28;;;5.70;99.90;;;;;;5134836;27;20035;-83
2023/01/10 08:05:21;;;;;;;27.17;5.40;;;5.70;99.90;;;;;;5119876;27;20073;-83
2023/01/10 08:07:47;;;;;;;22.70;5.20;;;5.70;99.90;;;;;;5138174;27;20497;-83
2023/01/10 08:10:13;;;;;;;26.65;5.60;;;5.70;99.90;;;;;;5117976;27;20039;-82
2023/01/10 08:12:38;;;;;;;30.33;5.30;;;5.70;99.90;;;;;;5115920;27;20080;-83
2023/01/10 08:15:05;;;;;;;33.53;5.28;;;5.70;99.90;;;;;;5142374;27;20563;-83
2023/01/10 08:17:34;;;;;;;26.75;4.75;;;5.70;99.90;;;;;;5137001;27;20043;-82
2023/01/10 08:19:59;;;;;;;24.58;4.97;;;5.70;99.90;;;;;;5137906;27;20051;-82
2023/01/10 08:22:25;;;;;;;25.48;5.32;;;5.70;99.90;;;;;;5134096;27;20046;-82
2023/01/10 08:24:51;;;;;;;25.75;5.55;;;5.70;99.90;;;;;;5139205;27;20065;-80
2023/01/10 08:27:17;;;;;;;32.30;6.30;;;5.70;99.90;;;;;;5137943;27;20038;-83
2023/01/10 08:29:43;;;;;;;27.13;6.45;;;5.70;99.90;;;;;;5117724;27;20039;-83
2023/01/10 08:32:09;;;;;;;24.95;4.90;;;5.70;99.90;;;;;;5112913;27;20037;-82
2023/01/10 08:34:34;;;;;;;17.63;4.60;;;5.70;99.90;;;;;;5139138;27;20031;-83
2023/01/10 08:37:00;;;;;;;28.15;4.90;;;5.70;99.90;;;;;;5136049;27;20047;-83
2023/01/10 08:39:29;;;;;;;25.45;4.43;;;5.80;99.90;;;;;;5120513;27;20521;-83
2023/01/10 08:41:55;;;;;;;22.90;5.10;;;5.70;99.90;;;;;;5142312;27;20034;-81
2023/01/10 08:44:21;;;;;;;17.63;4.78;;;5.80;99.90;;;;;;5138763;27;20543;-80
2023/01/10 08:46:46;;;;;;;18.33;4.10;;;5.80;99.90;;;;;;5139717;27;20089;-80
2023/01/10 08:49:12;;;;;;;23.52;5.25;;;5.80;99.90;;;;;;5134656;27;20053;-79
2023/01/10 08:51:38;;;;;;;18.55;4.47;;;5.70;99.90;;;;;;5135646;27;20031;-79
2023/01/10 08:54:03;;;;;;;24.92;4.45;;;5.70;99.90;;;;;;5143874;27;20481;-79
2023/01/10 08:56:29;;;;;;;21.55;4.95;;;5.60;99.90;;;;;;5138314;27;20046;-80
2023/01/10 08:58:55;;;;;;;23.10;5.00;;;5.60;99.90;;;;;;5140505;27;20446;-80
2023/01/10 09:01:20;;;;;;;18.48;4.30;;;5.60;99.90;;;;;;5137739;27;20034;-80
2023/01/10 09:03:46;;;;;;;20.15;4.30;;;5.60;99.90;;;;;;5130922;27;20113;-80
2023/01/10 09:06:11;;;;;;;26.05;5.28;;;5.70;99.90;;;;;;5148826;27;20031;-81
2023/01/10 09:08:37;;;;;;;21.88;5.00;;;5.70;99.90;;;;;;5140644;27;20038;-80
2023/01/10 09:11:04;;;;;;;23.40;4.18;;;6.60;99.90;;;;;;5140913;27;20034;-80
2023/01/10 09:13:30;;;;;;;24.30;4.90;;;5.80;99.90;;;;;;5140376;27;20464;-80
2023/01/10 09:15:56;;;;;;;22.13;4.82;;;5.90;99.90;;;;;;5135377;27;20049;-80
2023/01/10 09:18:22;;;;;;;21.73;5.65;;;6.00;99.90;;;;;;5121752;27;20043;-82
2023/01/10 09:20:49;;;;;;;25.45;5.05;;;6.10;99.90;;;;;;5116570;27;20078;-80
2023/01/10 09:23:17;;;;;;;23.70;5.43;;;6.10;99.90;;;;;;5136652;27;20023;-80
2023/01/10 09:25:44;;;;;;;24.73;5.70;;;6.20;99.90;;;;;;5137898;27;20107;-80
2023/01/10 09:28:10;;;;;;;30.65;6.00;;;6.20;99.90;;;;;;5136822;27;20465;-80
2023/01/10 09:30:36;;;;;;;22.15;4.53;;;6.20;99.90;;;;;;5140855;27;20118;-80
2023/01/10 09:33:03;;;;;;;18.58;4.72;;;6.20;99.90;;;;;;5142742;27;20031;-80
2023/01/10 09:35:30;;;;;;;18.25;5.07;;;6.20;99.90;;;;;;5136953;27;20473;-81
2023/01/10 09:37:57;;;;;;;20.75;5.10;;;6.30;99.90;;;;;;5136643;27;20477;-80
2023/01/10 09:40:33;;;;;;;19.40;4.07;;;6.30;99.90;;;;;;5117973;27;20589;-80
2023/01/10 09:43:09;;;;;;;21.98;4.15;;;6.30;99.90;;;;;;5131098;27;20439;-80
2023/01/10 09:45:54;;;;;;;28.48;5.13;;;6.30;99.90;;;;;;5121634;27;20104;-80
2023/01/10 09:48:40;;;;;;;17.88;4.82;;;6.40;99.90;;;;;;5139714;27;20050;-80
2023/01/10 09:51:32;;;;;;;26.50;4.65;;;6.40;99.90;;;;;;5138137;27;20454;-80
2023/01/10 09:54:01;;;;;;;20.85;4.20;;;6.50;99.90;;;;;;5133857;27;20035;-80
2023/01/10 09:56:28;;;;;;;22.55;4.60;;;6.50;99.90;;;;;;5139213;27;20035;-80
2023/01/10 09:58:56;;;;;;;28.67;4.97;;;6.50;99.90;;;;;;5129717;27;20036;-81
2023/01/10 10:01:35;;;;;;;19.23;4.28;;;6.50;99.90;;;;;;5144061;27;20031;-80
2023/01/10 10:04:18;;;;;;;22.20;4.55;;;6.50;99.90;;;;;;5133515;27;20031;-80
2023/01/10 10:06:43;;;;;;;16.67;3.42;;;6.50;99.90;;;;;;5138329;27;20048;-81
2023/01/10 10:09:13;;;;;;;22.77;4.35;;;6.50;99.90;;;;;;5141258;27;20039;-80
2023/01/10 10:11:55;;;;;;;21.35;4.70;;;6.50;99.90;;;;;;5138427;27;20254;-81
2023/01/10 10:14:34;;;;;;;22.75;4.93;;;6.60;99.90;;;;;;5121550;27;20058;-80
2023/01/10 10:17:44;;;;;;;19.42;4.18;;;6.50;99.90;;;;;;5140769;27;20412;-80
2023/01/10 10:20:29;;;;;;;27.17;4.90;;;6.50;99.90;;;;;;5039283;28;20046;-80
2023/01/10 10:23:13;;;;;;;14.13;3.85;;;6.80;99.90;;;;;;5038947;28;20057;-80
2023/01/10 10:25:58;;;;;;;22.65;4.78;;;6.50;99.90;;;;;;5033370;28;20041;-81
2023/01/10 10:28:52;;;;;;;21.67;4.72;;;6.60;99.90;;;;;;5041599;28;20045;-82
2023/01/10 10:31:33;;;;;;;17.42;4.10;;;6.60;99.90;;;;;;5010671;28;20120;-80
2023/01/10 10:34:10;;;;;;;20.45;3.88;;;6.60;99.90;;;;;;5033497;28;20041;-80
2023/01/10 10:36:46;;;;;;;20.50;4.00;;;6.70;99.90;;;;;;5028973;28;20764;-80
2023/01/10 10:39:17;;;;;;;19.65;4.20;;;6.70;99.90;;;;;;5036929;28;20103;-80
2023/01/10 10:41:47;;;;;;;21.27;3.53;;;6.70;99.90;;;;;;5020775;28;20095;-81
2023/01/10 10:44:39;;;;;;;20.77;4.15;;;6.70;99.90;;;;;;5029407;28;20413;-81
2023/01/10 10:47:16;;;;;;;25.27;3.90;;;6.80;99.90;;;;;;5031133;28;20120;-81
2023/01/10 10:50:00;;;;;;;27.58;4.40;;;6.80;99.90;;;;;;5028305;28;20075;-81
2023/01/10 10:52:31;;;;;;;17.10;3.55;;;6.90;99.90;;;;;;5043924;28;20040;-81
2023/01/10 10:54:57;;;;;;;16.25;3.80;;;7.10;99.90;;;;;;5049831;27;20051;-80
2023/01/10 10:57:27;;;;;;;30.08;5.68;;;7.00;99.90;;;;;;5121656;27;20485;-80
2023/01/10 10:59:55;;;;;;;23.42;5.00;;;6.90;99.90;;;;;;5121454;27;20039;-80
2023/01/10 11:02:28;;;;;;;21.80;4.57;;;7.00;99.90;;;;;;5118565;27;20099;-80
2023/01/10 11:05:00;;;;;;;23.75;5.55;;;7.10;99.90;;;;;;5106605;27;20051;-84
2023/01/10 11:07:31;;;;;;;21.95;4.95;;;7.10;99.90;;;;;;5144493;27;20035;-79
2023/01/10 11:12:46;;;;;;;18.13;4.97;;;7.10;99.90;;;;;;5133304;27;20047;-80
2023/01/10 11:15:42;;;;;;;23.58;7.20;;;7.10;99.90;;;;;;5142214;27;20035;-80
2023/01/10 11:18:15;;;;;;;21.75;5.53;;;7.20;99.90;;;;;;5136959;27;20512;-80
2023/01/10 11:20:59;;;;;;;23.83;7.35;;;7.20;99.90;;;;;;5141850;27;20485;-80
2023/01/10 11:23:40;;;;;;;26.65;7.18;;;7.20;99.90;;;;;;5146431;27;20486;-80
2023/01/10 11:26:09;;;;;;;23.05;7.18;;;7.20;99.90;;;;;;5140493;27;20026;-80
2023/01/10 11:28:36;;;;;;;24.52;7.38;;;7.20;99.90;;;;;;5142689;27;20064;-81
2023/01/10 11:31:02;;;;;;;25.20;7.20;;;7.20;99.90;;;;;;5119601;27;20397;-80
2023/01/10 11:33:38;;;;;;;25.27;7.18;;;7.20;99.90;;;;;;5135665;27;20523;-80
2023/01/10 11:36:08;;;;;;;26.08;8.85;;;7.20;99.90;;;;;;5137122;27;20030;-80
2023/01/10 11:38:34;;;;;;;21.73;7.82;;;7.20;99.90;;;;;;5137699;27;20035;-81
2023/01/10 11:41:21;;;;;;;31.45;9.82;;;7.70;99.90;;;;;;5120215;27;20047;-80
2023/01/10 11:43:47;;;;;;;28.92;9.13;;;7.20;99.90;;;;;;5130970;27;20443;-80
2023/01/10 11:46:15;;;;;;;22.88;8.05;;;7.20;99.90;;;;;;5143018;27;20035;-80
2023/01/10 11:48:59;;;;;;;29.02;9.43;;;7.10;99.90;;;;;;5143610;27;20051;-80
2023/01/10 11:51:32;;;;;;;23.73;8.02;;;7.10;99.90;;;;;;5119080;27;20529;-81
2023/01/10 11:54:01;;;;;;;28.88;9.90;;;7.40;99.90;;;;;;5117095;27;20080;-80
2023/01/10 11:56:30;;;;;;;37.33;8.48;;;7.20;99.90;;;;;;5118843;27;20053;-80
2023/01/10 11:58:59;;;;;;;26.17;8.70;;;7.10;99.90;;;;;;5140441;27;20397;-80
2023/01/10 12:01:52;;;;;;;25.35;7.97;;;7.10;99.90;;;;;;5130354;27;20056;-80
2023/01/10 12:04:22;;;;;;;33.22;9.02;;;7.10;99.90;;;;;;5134985;27;20371;-80
2023/01/10 12:06:54;;;;;;;27.13;7.57;;;7.10;99.90;;;;;;5138690;27;20084;-81
2023/01/10 12:09:35;;;;;;;30.55;7.95;;;7.10;99.90;;;;;;5136445;27;20042;-80
2023/01/10 12:12:25;;;;;;;27.45;8.60;;;7.40;99.90;;;;;;5141122;27;20405;-80
2023/01/10 12:14:52;;;;;;;21.60;7.93;;;7.10;99.90;;;;;;5116603;27;20051;-82
2023/01/10 12:17:31;;;;;;;25.70;7.93;;;7.10;99.90;;;;;;5116823;27;20107;-81
2023/01/10 12:20:00;;;;;;;27.92;7.00;;;7.10;99.90;;;;;;5121489;27;20433;-81
2023/01/10 12:22:45;;;;;;;20.50;6.55;;;7.20;99.90;;;;;;5120349;27;20046;-81
2023/01/10 12:25:23;;;;;;;20.45;6.10;;;7.10;99.90;;;;;;5142911;27;20122;-81
2023/01/10 12:27:49;;;;;;;18.15;5.47;;;7.10;99.90;;;;;;5129287;27;20039;-81
2023/01/10 12:30:31;;;;;;;22.85;6.22;;;7.10;99.90;;;;;;5138647;27;20035;-81
2023/01/10 12:32:59;;;;;;;20.58;5.97;;;7.10;99.90;;;;;;5138129;27;20069;-81
2023/01/10 12:35:52;;;;;;;19.20;4.50;;;7.10;99.90;;;;;;5141733;27;20455;-81
2023/01/10 12:44:17;;;;;;;29.50;4.85;;;7.10;99.90;;;;;;5139956;27;20043;-81
2023/01/10 12:46:48;;;;;;;20.90;5.28;;;7.10;99.90;;;;;;5140439;27;20118;-81
2023/01/10 12:49:21;;;;;;;28.80;6.07;;;7.10;99.90;;;;;;5137346;27;20038;-80
2023/01/10 12:51:50;;;;;;;27.85;4.93;;;7.10;99.90;;;;;;5132315;27;20053;-80
2023/01/10 12:54:22;;;;;;;23.15;5.70;;;7.10;99.90;;;;;;5131445;27;20445;-80
2023/01/10 12:56:49;;;;;;;20.48;5.18;;;7.10;99.90;;;;;;5115449;28;20545;-80
2023/01/10 12:59:23;;;;;;;24.60;4.90;;;7.10;99.90;;;;;;5135306;27;20039;-80
2023/01/10 13:01:54;;;;;;;20.05;5.13;;;7.10;99.90;;;;;;5130424;27;20035;-80
2023/01/10 13:04:22;;;;;;;17.35;4.32;;;7.10;99.90;;;;;;5131498;27;20034;-80
2023/01/10 13:06:49;;;;;;;21.55;4.97;;;7.10;99.90;;;;;;5134990;27;20135;-81
2023/01/10 13:09:21;;;;;;;25.55;6.15;;;7.10;99.90;;;;;;5137563;27;20035;-80
2023/01/10 13:12:19;;;;;;;18.30;5.00;;;7.10;99.90;;;;;;5135533;27;20076;-80
2023/01/10 13:15:20;;;;;;;27.23;5.85;;;7.40;99.90;;;;;;5127110;27;20046;-80
2023/01/10 13:18:04;;;;;;;20.73;4.88;;;7.10;99.90;;;;;;5131081;27;20046;-82